sensor_id;sensor_type;location;lat;lon;timestamp;P1;durP1;ratioP1;P2;durP2;ratioP2
1460;SDS011;724;49.910;12.530;2023-11-19T00:00:09;12.00;;;11.40;;
1460;SDS011;724;49.910;12.530;2023-11-19T00:02:36;11.73;;;11.13;;
1460;SDS011;724;49.910;12.530;2023-11-19T00:05:03;11.82;;;11.23;;
1460;SDS011;724;49.910;12.530;2023-11-19T00:07:33;12.05;;;11.45;;
1460;SDS011;724;49.910;12.530;2023-11-19T00:10:00;12.20;;;11.60;;
1460;SDS011;724;49.910;12.530;2023-11-19T00:12:35;12.75;;;12.05;;
1460;SDS011;724;49.910;12.530;2023-11-19T00:15:03;12.77;;;12.07;;
1460;SDS011;724;49.910;12.530;2023-11-19T00:17:31;12.38;;;11.77;;
1460;SDS011;724;49.910;12.530;2023-11-19T00:19:58;13.07;;;12.38;;
1460;SDS011;724;49.910;12.530;2023-11-19T00:22:25;12.50;;;11.90;;
1460;SDS011;724;49.910;12.530;2023-11-19T00:24:52;12.63;;;11.98;;
1460;SDS011;724;49.910;12.530;2023-11-19T00:27:18;12.00;;;11.40;;
1460;SDS011;724;49.910;12.530;2023-11-19T00:29:46;12.10;;;11.50;;
1460;SDS011;724;49.910;12.530;2023-11-19T00:32:14;12.10;;;11.50;;
1460;SDS011;724;49.910;12.530;2023-11-19T00:34:44;11.90;;;11.30;;
1460;SDS011;724;49.910;12.530;2023-11-19T00:37:13;12.10;;;11.50;;
1460;SDS011;724;49.910;12.530;2023-11-19T00:39:40;12.18;;;11.57;;
1460;SDS011;724;49.910;12.530;2023-11-19T00:42:08;12.18;;;11.57;;
1460;SDS011;724;49.910;12.530;2023-11-19T00:44:36;11.85;;;11.25;;
1460;SDS011;724;49.910;12.530;2023-11-19T00:47:03;12.30;;;11.70;;
1460;SDS011;724;49.910;12.530;2023-11-19T00:49:31;12.50;;;11.90;;
1460;SDS011;724;49.910;12.530;2023-11-19T00:52:00;11.60;;;11.00;;
1460;SDS011;724;49.910;12.530;2023-11-19T00:54:27;11.20;;;10.60;;
1460;SDS011;724;49.910;12.530;2023-11-19T00:56:54;12.00;;;11.40;;
1460;SDS011;724;49.910;12.530;2023-11-19T00:59:21;12.82;;;12.13;;
1460;SDS011;724;49.910;12.530;2023-11-19T01:01:48;12.73;;;12.02;;
1460;SDS011;724;49.910;12.530;2023-11-19T01:04:16;12.80;;;12.10;;
1460;SDS011;724;49.910;12.530;2023-11-19T01:06:43;12.80;;;12.10;;
1460;SDS011;724;49.910;12.530;2023-11-19T01:09:11;12.40;;;11.80;;
1460;SDS011;724;49.910;12.530;2023-11-19T01:11:38;12.20;;;11.60;;
1460;SDS011;724;49.910;12.530;2023-11-19T01:14:05;12.45;;;11.85;;
1460;SDS011;724;49.910;12.530;2023-11-19T01:16:31;12.50;;;11.90;;
1460;SDS011;724;49.910;12.530;2023-11-19T01:18:58;12.70;;;12.00;;
1460;SDS011;724;49.910;12.530;2023-11-19T01:21:29;12.20;;;11.60;;
1460;SDS011;724;49.910;12.530;2023-11-19T01:23:56;12.50;;;11.90;;
1460;SDS011;724;49.910;12.530;2023-11-19T01:26:24;12.75;;;12.05;;
1460;SDS011;724;49.910;12.530;2023-11-19T01:28:51;12.38;;;11.77;;
1460;SDS011;724;49.910;12.530;2023-11-19T01:31:18;12.80;;;12.10;;
1460;SDS011;724;49.910;12.530;2023-11-19T01:33:45;12.60;;;11.95;;
1460;SDS011;724;49.910;12.530;2023-11-19T01:36:12;12.50;;;11.90;;
1460;SDS011;724;49.910;12.530;2023-11-19T01:38:39;12.73;;;12.02;;
1460;SDS011;724;49.910;12.530;2023-11-19T01:41:06;12.90;;;12.20;;
1460;SDS011;724;49.910;12.530;2023-11-19T01:43:35;12.40;;;11.80;;
1460;SDS011;724;49.910;12.530;2023-11-19T01:46:04;12.77;;;12.07;;
1460;SDS011;724;49.910;12.530;2023-11-19T01:48:32;13.00;;;12.30;;
1460;SDS011;724;49.910;12.530;2023-11-19T01:51:01;12.90;;;12.20;;
1460;SDS011;724;49.910;12.530;2023-11-19T01:53:29;13.00;;;12.30;;
1460;SDS011;724;49.910;12.530;2023-11-19T01:55:56;13.30;;;12.60;;
1460;SDS011;724;49.910;12.530;2023-11-19T01:58:24;13.40;;;12.70;;
1460;SDS011;724;49.910;12.530;2023-11-19T02:00:52;13.40;;;12.70;;
1460;SDS011;724;49.910;12.530;2023-11-19T02:03:19;13.60;;;12.90;;
1460;SDS011;724;49.910;12.530;2023-11-19T02:05:47;13.68;;;12.98;;
1460;SDS011;724;49.910;12.530;2023-11-19T02:08:16;13.60;;;12.90;;
1460;SDS011;724;49.910;12.530;2023-11-19T02:10:42;13.40;;;12.70;;
1460;SDS011;724;49.910;12.530;2023-11-19T02:13:09;13.38;;;12.68;;
1460;SDS011;724;49.910;12.530;2023-11-19T02:15:38;13.63;;;12.93;;
1460;SDS011;724;49.910;12.530;2023-11-19T02:20:52;13.40;;;12.70;;
1460;SDS011;724;49.910;12.530;2023-11-19T02:23:19;13.80;;;13.10;;
1460;SDS011;724;49.910;12.530;2023-11-19T02:25:47;14.05;;;13.35;;
1460;SDS011;724;49.910;12.530;2023-11-19T02:28:22;13.60;;;12.90;;
1460;SDS011;724;49.910;12.530;2023-11-19T02:30:49;14.30;;;13.60;;
1460;SDS011;724;49.910;12.530;2023-11-19T02:33:16;14.45;;;13.75;;
1460;SDS011;724;49.910;12.530;2023-11-19T02:35:42;14.95;;;14.15;;
1460;SDS011;724;49.910;12.530;2023-11-19T02:38:09;14.80;;;14.00;;
1460;SDS011;724;49.910;12.530;2023-11-19T02:40:36;14.40;;;13.70;;
1460;SDS011;724;49.910;12.530;2023-11-19T02:43:03;13.90;;;13.20;;
1460;SDS011;724;49.910;12.530;2023-11-19T02:45:31;14.30;;;13.60;;
1460;SDS011;724;49.910;12.530;2023-11-19T02:47:58;14.23;;;13.52;;
1460;SDS011;724;49.910;12.530;2023-11-19T02:50:27;14.93;;;14.13;;
1460;SDS011;724;49.910;12.530;2023-11-19T02:52:54;14.43;;;13.73;;
1460;SDS011;724;49.910;12.530;2023-11-19T02:55:22;14.38;;;13.68;;
1460;SDS011;724;49.910;12.530;2023-11-19T02:57:49;14.43;;;13.73;;
1460;SDS011;724;49.910;12.530;2023-11-19T03:00:18;14.60;;;13.88;;
1460;SDS011;724;49.910;12.530;2023-11-19T03:02:50;14.45;;;13.75;;
1460;SDS011;724;49.910;12.530;2023-11-19T03:05:24;14.50;;;13.80;;
1460;SDS011;724;49.910;12.530;2023-11-19T03:07:54;14.80;;;14.00;;
1460;SDS011;724;49.910;12.530;2023-11-19T03:10:21;14.90;;;14.10;;
1460;SDS011;724;49.910;12.530;2023-11-19T03:12:49;14.80;;;14.00;;
1460;SDS011;724;49.910;12.530;2023-11-19T03:15:16;14.45;;;13.75;;
1460;SDS011;724;49.910;12.530;2023-11-19T03:17:42;15.07;;;14.27;;
1460;SDS011;724;49.910;12.530;2023-11-19T03:20:11;14.30;;;13.60;;
1460;SDS011;724;49.910;12.530;2023-11-19T03:22:42;14.45;;;13.75;;
1460;SDS011;724;49.910;12.530;2023-11-19T03:25:09;14.30;;;13.60;;
1460;SDS011;724;49.910;12.530;2023-11-19T03:27:36;14.02;;;13.32;;
1460;SDS011;724;49.910;12.530;2023-11-19T03:30:04;14.20;;;13.50;;
1460;SDS011;724;49.910;12.530;2023-11-19T03:32:32;14.20;;;13.50;;
1460;SDS011;724;49.910;12.530;2023-11-19T03:35:00;13.80;;;13.10;;
1460;SDS011;724;49.910;12.530;2023-11-19T03:37:30;14.23;;;13.52;;
1460;SDS011;724;49.910;12.530;2023-11-19T03:39:58;14.13;;;13.43;;
1460;SDS011;724;49.910;12.530;2023-11-19T03:42:25;14.10;;;13.40;;
1460;SDS011;724;49.910;12.530;2023-11-19T03:44:52;14.40;;;13.70;;
1460;SDS011;724;49.910;12.530;2023-11-19T03:47:19;14.02;;;13.32;;
1460;SDS011;724;49.910;12.530;2023-11-19T03:49:48;14.50;;;13.80;;
1460;SDS011;724;49.910;12.530;2023-11-19T03:52:16;14.23;;;13.52;;
1460;SDS011;724;49.910;12.530;2023-11-19T03:54:45;14.02;;;13.32;;
1460;SDS011;724;49.910;12.530;2023-11-19T03:57:14;14.20;;;13.50;;
1460;SDS011;724;49.910;12.530;2023-11-19T03:59:42;14.50;;;13.80;;
1460;SDS011;724;49.910;12.530;2023-11-19T04:02:09;14.10;;;13.40;;
1460;SDS011;724;49.910;12.530;2023-11-19T04:04:36;14.30;;;13.60;;
1460;SDS011;724;49.910;12.530;2023-11-19T04:07:04;13.70;;;13.00;;
1460;SDS011;724;49.910;12.530;2023-11-19T04:09:31;13.90;;;13.20;;
1460;SDS011;724;49.910;12.530;2023-11-19T04:12:00;14.00;;;13.30;;
1460;SDS011;724;49.910;12.530;2023-11-19T04:14:27;14.40;;;13.70;;
1460;SDS011;724;49.910;12.530;2023-11-19T04:16:54;13.90;;;13.20;;
1460;SDS011;724;49.910;12.530;2023-11-19T04:19:21;13.40;;;12.70;;
1460;SDS011;724;49.910;12.530;2023-11-19T04:21:49;13.15;;;12.45;;
1460;SDS011;724;49.910;12.530;2023-11-19T04:24:17;12.70;;;12.00;;
1460;SDS011;724;49.910;12.530;2023-11-19T04:26:44;13.00;;;12.30;;
1460;SDS011;724;49.910;12.530;2023-11-19T04:29:14;12.50;;;11.90;;
1460;SDS011;724;49.910;12.530;2023-11-19T04:31:42;12.70;;;12.00;;
1460;SDS011;724;49.910;12.530;2023-11-19T04:34:09;12.20;;;11.60;;
1460;SDS011;724;49.910;12.530;2023-11-19T04:36:36;11.80;;;11.20;;
1460;SDS011;724;49.910;12.530;2023-11-19T04:39:04;11.77;;;11.18;;
1460;SDS011;724;49.910;12.530;2023-11-19T04:41:34;12.00;;;11.40;;
1460;SDS011;724;49.910;12.530;2023-11-19T04:44:01;11.80;;;11.20;;
1460;SDS011;724;49.910;12.530;2023-11-19T04:46:30;11.63;;;11.02;;
1460;SDS011;724;49.910;12.530;2023-11-19T04:48:58;11.95;;;11.35;;
1460;SDS011;724;49.910;12.530;2023-11-19T04:51:25;12.10;;;11.50;;
1460;SDS011;724;49.910;12.530;2023-11-19T04:53:52;11.98;;;11.38;;
1460;SDS011;724;49.910;12.530;2023-11-19T04:56:18;11.80;;;11.20;;
1460;SDS011;724;49.910;12.530;2023-11-19T04:58:48;11.60;;;11.00;;
1460;SDS011;724;49.910;12.530;2023-11-19T05:01:14;11.70;;;11.10;;
1460;SDS011;724;49.910;12.530;2023-11-19T05:03:44;11.60;;;11.00;;
1460;SDS011;724;49.910;12.530;2023-11-19T05:06:11;11.40;;;10.80;;
1460;SDS011;724;49.910;12.530;2023-11-19T05:08:38;11.60;;;11.00;;
1460;SDS011;724;49.910;12.530;2023-11-19T05:11:05;11.80;;;11.20;;
1460;SDS011;724;49.910;12.530;2023-11-19T05:13:32;11.30;;;10.70;;
1460;SDS011;724;49.910;12.530;2023-11-19T05:16:00;11.10;;;10.50;;
1460;SDS011;724;49.910;12.530;2023-11-19T05:18:28;11.10;;;10.50;;
1460;SDS011;724;49.910;12.530;2023-11-19T05:21:00;11.15;;;10.55;;
1460;SDS011;724;49.910;12.530;2023-11-19T05:23:27;10.90;;;10.30;;
1460;SDS011;724;49.910;12.530;2023-11-19T05:25:55;10.90;;;10.30;;
1460;SDS011;724;49.910;12.530;2023-11-19T05:28:25;10.73;;;10.13;;
1460;SDS011;724;49.910;12.530;2023-11-19T05:30:51;10.65;;;10.05;;
1460;SDS011;724;49.910;12.530;2023-11-19T05:33:18;10.40;;;9.90;;
1460;SDS011;724;49.910;12.530;2023-11-19T05:35:45;10.30;;;9.80;;
1460;SDS011;724;49.910;12.530;2023-11-19T05:38:15;10.40;;;9.90;;
1460;SDS011;724;49.910;12.530;2023-11-19T05:40:43;10.20;;;9.70;;
1460;SDS011;724;49.910;12.530;2023-11-19T05:43:13;10.40;;;9.90;;
1460;SDS011;724;49.910;12.530;2023-11-19T05:45:41;10.10;;;9.60;;
1460;SDS011;724;49.910;12.530;2023-11-19T05:48:08;10.10;;;9.60;;
1460;SDS011;724;49.910;12.530;2023-11-19T05:50:35;10.10;;;9.60;;
1460;SDS011;724;49.910;12.530;2023-11-19T05:53:02;9.50;;;9.00;;
1460;SDS011;724;49.910;12.530;2023-11-19T05:55:33;10.00;;;9.50;;
1460;SDS011;724;49.910;12.530;2023-11-19T05:58:00;10.13;;;9.63;;
1460;SDS011;724;49.910;12.530;2023-11-19T06:00:29;10.07;;;9.57;;
1460;SDS011;724;49.910;12.530;2023-11-19T06:02:57;9.73;;;9.23;;
1460;SDS011;724;49.910;12.530;2023-11-19T06:05:24;9.40;;;8.90;;
1460;SDS011;724;49.910;12.530;2023-11-19T06:07:51;9.70;;;9.20;;
1460;SDS011;724;49.910;12.530;2023-11-19T06:10:17;9.90;;;9.40;;
1460;SDS011;724;49.910;12.530;2023-11-19T06:12:48;9.90;;;9.40;;
1460;SDS011;724;49.910;12.530;2023-11-19T06:15:21;9.80;;;9.30;;
1460;SDS011;724;49.910;12.530;2023-11-19T06:17:48;10.05;;;9.55;;
1460;SDS011;724;49.910;12.530;2023-11-19T06:20:15;10.10;;;9.60;;
1460;SDS011;724;49.910;12.530;2023-11-19T06:22:43;9.50;;;9.00;;
1460;SDS011;724;49.910;12.530;2023-11-19T06:25:10;9.73;;;9.23;;
1460;SDS011;724;49.910;12.530;2023-11-19T06:27:39;9.52;;;9.02;;
1460;SDS011;724;49.910;12.530;2023-11-19T06:30:11;9.80;;;9.30;;
1460;SDS011;724;49.910;12.530;2023-11-19T06:32:38;9.70;;;9.20;;
1460;SDS011;724;49.910;12.530;2023-11-19T06:35:05;9.60;;;9.10;;
1460;SDS011;724;49.910;12.530;2023-11-19T06:37:33;9.70;;;9.20;;
1460;SDS011;724;49.910;12.530;2023-11-19T06:40:01;9.70;;;9.20;;
1460;SDS011;724;49.910;12.530;2023-11-19T06:42:30;10.18;;;9.68;;
1460;SDS011;724;49.910;12.530;2023-11-19T06:44:56;10.27;;;9.77;;
1460;SDS011;724;49.910;12.530;2023-11-19T06:47:26;9.82;;;9.32;;
1460;SDS011;724;49.910;12.530;2023-11-19T06:49:53;9.80;;;9.30;;
1460;SDS011;724;49.910;12.530;2023-11-19T06:52:20;10.05;;;9.55;;
1460;SDS011;724;49.910;12.530;2023-11-19T06:54:47;10.02;;;9.52;;
1460;SDS011;724;49.910;12.530;2023-11-19T06:57:13;10.20;;;9.70;;
1460;SDS011;724;49.910;12.530;2023-11-19T06:59:40;11.20;;;10.60;;
1460;SDS011;724;49.910;12.530;2023-11-19T07:02:09;11.05;;;10.45;;
1460;SDS011;724;49.910;12.530;2023-11-19T07:04:37;11.13;;;10.52;;
1460;SDS011;724;49.910;12.530;2023-11-19T07:07:03;10.90;;;10.30;;
1460;SDS011;724;49.910;12.530;2023-11-19T07:09:31;10.60;;;10.00;;
1460;SDS011;724;49.910;12.530;2023-11-19T07:11:58;10.70;;;10.10;;
1460;SDS011;724;49.910;12.530;2023-11-19T07:14:26;10.60;;;10.00;;
1460;SDS011;724;49.910;12.530;2023-11-19T07:16:53;10.60;;;10.00;;
1460;SDS011;724;49.910;12.530;2023-11-19T07:19:20;10.80;;;10.20;;
1460;SDS011;724;49.910;12.530;2023-11-19T07:21:48;10.68;;;10.07;;
1460;SDS011;724;49.910;12.530;2023-11-19T07:24:15;11.00;;;10.40;;
1460;SDS011;724;49.910;12.530;2023-11-19T07:26:42;10.70;;;10.10;;
1460;SDS011;724;49.910;12.530;2023-11-19T07:29:09;10.30;;;9.80;;
1460;SDS011;724;49.910;12.530;2023-11-19T07:31:36;10.30;;;9.80;;
1460;SDS011;724;49.910;12.530;2023-11-19T07:34:03;10.10;;;9.60;;
1460;SDS011;724;49.910;12.530;2023-11-19T07:36:31;10.30;;;9.80;;
1460;SDS011;724;49.910;12.530;2023-11-19T07:38:59;10.13;;;9.63;;
1460;SDS011;724;49.910;12.530;2023-11-19T07:41:26;9.95;;;9.45;;
1460;SDS011;724;49.910;12.530;2023-11-19T07:43:53;9.90;;;9.40;;
1460;SDS011;724;49.910;12.530;2023-11-19T07:46:20;10.10;;;9.60;;
1460;SDS011;724;49.910;12.530;2023-11-19T07:48:47;10.00;;;9.50;;
1460;SDS011;724;49.910;12.530;2023-11-19T07:51:14;10.00;;;9.50;;
1460;SDS011;724;49.910;12.530;2023-11-19T07:53:41;10.10;;;9.60;;
1460;SDS011;724;49.910;12.530;2023-11-19T07:56:09;10.13;;;9.63;;
1460;SDS011;724;49.910;12.530;2023-11-19T07:58:36;9.80;;;9.30;;
1460;SDS011;724;49.910;12.530;2023-11-19T08:01:04;9.93;;;9.43;;
1460;SDS011;724;49.910;12.530;2023-11-19T08:03:32;10.00;;;9.50;;
1460;SDS011;724;49.910;12.530;2023-11-19T08:05:59;9.85;;;9.35;;
1460;SDS011;724;49.910;12.530;2023-11-19T08:08:27;9.95;;;9.45;;
1460;SDS011;724;49.910;12.530;2023-11-19T08:10:54;9.90;;;9.40;;
1460;SDS011;724;49.910;12.530;2023-11-19T08:13:23;9.80;;;9.30;;
1460;SDS011;724;49.910;12.530;2023-11-19T08:15:50;10.10;;;9.60;;
1460;SDS011;724;49.910;12.530;2023-11-19T08:18:17;9.90;;;9.40;;
1460;SDS011;724;49.910;12.530;2023-11-19T08:20:44;9.85;;;9.35;;
1460;SDS011;724;49.910;12.530;2023-11-19T08:23:12;9.90;;;9.40;;
1460;SDS011;724;49.910;12.530;2023-11-19T08:25:39;9.80;;;9.30;;
1460;SDS011;724;49.910;12.530;2023-11-19T08:28:06;10.20;;;9.70;;
1460;SDS011;724;49.910;12.530;2023-11-19T08:30:34;10.10;;;9.60;;
1460;SDS011;724;49.910;12.530;2023-11-19T08:33:01;10.27;;;9.77;;
1460;SDS011;724;49.910;12.530;2023-11-19T08:35:28;10.65;;;10.05;;
1460;SDS011;724;49.910;12.530;2023-11-19T08:37:55;10.80;;;10.20;;
1460;SDS011;724;49.910;12.530;2023-11-19T08:40:24;10.35;;;9.85;;
1460;SDS011;724;49.910;12.530;2023-11-19T08:42:51;10.40;;;9.90;;
1460;SDS011;724;49.910;12.530;2023-11-19T08:45:18;10.68;;;10.07;;
1460;SDS011;724;49.910;12.530;2023-11-19T08:47:46;10.50;;;9.95;;
1460;SDS011;724;49.910;12.530;2023-11-19T08:50:12;10.63;;;10.02;;
1460;SDS011;724;49.910;12.530;2023-11-19T08:52:39;10.70;;;10.10;;
1460;SDS011;724;49.910;12.530;2023-11-19T08:55:06;11.00;;;10.40;;
1460;SDS011;724;49.910;12.530;2023-11-19T08:57:34;10.90;;;10.30;;
1460;SDS011;724;49.910;12.530;2023-11-19T09:00:01;10.80;;;10.20;;
1460;SDS011;724;49.910;12.530;2023-11-19T09:02:29;10.70;;;10.10;;
1460;SDS011;724;49.910;12.530;2023-11-19T09:04:58;10.70;;;10.10;;
1460;SDS011;724;49.910;12.530;2023-11-19T09:07:25;10.60;;;10.00;;
1460;SDS011;724;49.910;12.530;2023-11-19T09:09:52;10.55;;;9.98;;
1460;SDS011;724;49.910;12.530;2023-11-19T09:12:19;10.30;;;9.80;;
1460;SDS011;724;49.910;12.530;2023-11-19T09:14:46;10.60;;;10.00;;
1460;SDS011;724;49.910;12.530;2023-11-19T09:17:14;10.80;;;10.20;;
1460;SDS011;724;49.910;12.530;2023-11-19T09:19:42;10.60;;;10.00;;
1460;SDS011;724;49.910;12.530;2023-11-19T09:22:10;10.80;;;10.20;;
1460;SDS011;724;49.910;12.530;2023-11-19T09:24:37;10.80;;;10.20;;
1460;SDS011;724;49.910;12.530;2023-11-19T09:27:04;10.80;;;10.20;;
1460;SDS011;724;49.910;12.530;2023-11-19T09:29:31;10.70;;;10.10;;
1460;SDS011;724;49.910;12.530;2023-11-19T09:31:58;10.82;;;10.23;;
1460;SDS011;724;49.910;12.530;2023-11-19T09:34:25;10.75;;;10.15;;
1460;SDS011;724;49.910;12.530;2023-11-19T09:36:52;11.10;;;10.50;;
1460;SDS011;724;49.910;12.530;2023-11-19T09:39:21;11.00;;;10.40;;
1460;SDS011;724;49.910;12.530;2023-11-19T09:41:47;10.75;;;10.15;;
1460;SDS011;724;49.910;12.530;2023-11-19T09:44:15;11.00;;;10.40;;
1460;SDS011;724;49.910;12.530;2023-11-19T09:46:43;11.10;;;10.50;;
1460;SDS011;724;49.910;12.530;2023-11-19T09:49:11;11.00;;;10.40;;
1460;SDS011;724;49.910;12.530;2023-11-19T09:51:40;11.40;;;10.80;;
1460;SDS011;724;49.910;12.530;2023-11-19T09:54:07;11.40;;;10.80;;
1460;SDS011;724;49.910;12.530;2023-11-19T09:56:35;11.40;;;10.80;;
1460;SDS011;724;49.910;12.530;2023-11-19T09:59:04;11.90;;;11.30;;
1460;SDS011;724;49.910;12.530;2023-11-19T10:01:31;11.63;;;11.02;;
1460;SDS011;724;49.910;12.530;2023-11-19T10:03:59;11.50;;;10.90;;
1460;SDS011;724;49.910;12.530;2023-11-19T10:06:27;11.70;;;11.10;;
1460;SDS011;724;49.910;12.530;2023-11-19T10:08:54;11.57;;;10.98;;
1460;SDS011;724;49.910;12.530;2023-11-19T10:11:21;11.80;;;11.20;;
1460;SDS011;724;49.910;12.530;2023-11-19T10:13:50;11.50;;;10.90;;
1460;SDS011;724;49.910;12.530;2023-11-19T10:16:18;11.40;;;10.80;;
1460;SDS011;724;49.910;12.530;2023-11-19T10:18:45;11.50;;;10.90;;
1460;SDS011;724;49.910;12.530;2023-11-19T10:21:13;11.63;;;11.02;;
1460;SDS011;724;49.910;12.530;2023-11-19T10:23:48;11.40;;;10.80;;
1460;SDS011;724;49.910;12.530;2023-11-19T10:26:16;11.30;;;10.70;;
1460;SDS011;724;49.910;12.530;2023-11-19T10:28:43;11.20;;;10.60;;
1460;SDS011;724;49.910;12.530;2023-11-19T10:31:13;11.20;;;10.60;;
1460;SDS011;724;49.910;12.530;2023-11-19T10:33:40;11.30;;;10.70;;
1460;SDS011;724;49.910;12.530;2023-11-19T10:36:09;11.60;;;11.00;;
1460;SDS011;724;49.910;12.530;2023-11-19T10:38:37;11.30;;;10.70;;
1460;SDS011;724;49.910;12.530;2023-11-19T10:41:05;11.70;;;11.10;;
1460;SDS011;724;49.910;12.530;2023-11-19T10:43:42;11.10;;;10.50;;
1460;SDS011;724;49.910;12.530;2023-11-19T10:46:09;10.90;;;10.30;;
1460;SDS011;724;49.910;12.530;2023-11-19T10:48:38;11.00;;;10.40;;
1460;SDS011;724;49.910;12.530;2023-11-19T10:51:06;11.10;;;10.50;;
1460;SDS011;724;49.910;12.530;2023-11-19T10:53:35;11.13;;;10.52;;
1460;SDS011;724;49.910;12.530;2023-11-19T10:56:04;11.30;;;10.70;;
1460;SDS011;724;49.910;12.530;2023-11-19T10:58:35;11.30;;;10.70;;
1460;SDS011;724;49.910;12.530;2023-11-19T11:01:04;11.50;;;10.90;;
1460;SDS011;724;49.910;12.530;2023-11-19T11:03:40;11.50;;;10.90;;
1460;SDS011;724;49.910;12.530;2023-11-19T11:06:11;11.70;;;11.10;;
1460;SDS011;724;49.910;12.530;2023-11-19T11:08:39;11.90;;;11.30;;
1460;SDS011;724;49.910;12.530;2023-11-19T11:11:07;11.80;;;11.20;;
1460;SDS011;724;49.910;12.530;2023-11-19T11:13:36;11.80;;;11.20;;
1460;SDS011;724;49.910;12.530;2023-11-19T11:16:05;12.00;;;11.40;;
1460;SDS011;724;49.910;12.530;2023-11-19T11:18:33;12.10;;;11.50;;
1460;SDS011;724;49.910;12.530;2023-11-19T11:21:03;12.00;;;11.40;;
1460;SDS011;724;49.910;12.530;2023-11-19T11:23:52;12.30;;;11.70;;
1460;SDS011;724;49.910;12.530;2023-11-19T11:26:48;12.20;;;11.60;;
1460;SDS011;724;49.910;12.530;2023-11-19T11:29:31;12.50;;;11.90;;
1460;SDS011;724;49.910;12.530;2023-11-19T11:32:08;12.43;;;11.82;;
1460;SDS011;724;49.910;12.530;2023-11-19T11:34:54;12.70;;;12.00;;
1460;SDS011;724;49.910;12.530;2023-11-19T11:37:44;12.48;;;11.88;;
1460;SDS011;724;49.910;12.530;2023-11-19T11:40:15;12.50;;;11.90;;
1460;SDS011;724;49.910;12.530;2023-11-19T11:42:43;12.50;;;11.90;;
1460;SDS011;724;49.910;12.530;2023-11-19T11:45:10;12.70;;;12.00;;
1460;SDS011;724;49.910;12.530;2023-11-19T11:50:35;12.50;;;11.90;;
1460;SDS011;724;49.910;12.530;2023-11-19T11:53:19;12.80;;;12.10;;
1460;SDS011;724;49.910;12.530;2023-11-19T11:55:52;12.73;;;12.02;;
1460;SDS011;724;49.910;12.530;2023-11-19T11:58:29;12.50;;;11.90;;
1460;SDS011;724;49.910;12.530;2023-11-19T12:01:01;12.23;;;11.63;;
1460;SDS011;724;49.910;12.530;2023-11-19T12:03:30;12.50;;;11.90;;
1460;SDS011;724;49.910;12.530;2023-11-19T12:05:58;12.48;;;11.88;;
1460;SDS011;724;49.910;12.530;2023-11-19T12:08:26;12.20;;;11.60;;
1460;SDS011;724;49.910;12.530;2023-11-19T12:10:55;12.30;;;11.70;;
1460;SDS011;724;49.910;12.530;2023-11-19T12:13:24;12.20;;;11.60;;
1460;SDS011;724;49.910;12.530;2023-11-19T12:16:07;12.40;;;11.80;;
1460;SDS011;724;49.910;12.530;2023-11-19T12:18:35;12.20;;;11.60;;
1460;SDS011;724;49.910;12.530;2023-11-19T12:21:04;12.30;;;11.70;;
1460;SDS011;724;49.910;12.530;2023-11-19T12:23:35;12.30;;;11.70;;
1460;SDS011;724;49.910;12.530;2023-11-19T12:26:30;12.30;;;11.70;;
1460;SDS011;724;49.910;12.530;2023-11-19T12:28:59;12.00;;;11.40;;
1460;SDS011;724;49.910;12.530;2023-11-19T12:31:29;12.20;;;11.60;;
1460;SDS011;724;49.910;12.530;2023-11-19T12:33:57;12.00;;;11.40;;
1460;SDS011;724;49.910;12.530;2023-11-19T12:36:25;12.20;;;11.60;;
1460;SDS011;724;49.910;12.530;2023-11-19T12:38:53;12.20;;;11.60;;
1460;SDS011;724;49.910;12.530;2023-11-19T12:41:20;12.40;;;11.80;;
1460;SDS011;724;49.910;12.530;2023-11-19T12:43:48;12.80;;;12.10;;
1460;SDS011;724;49.910;12.530;2023-11-19T12:46:18;12.80;;;12.10;;
1460;SDS011;724;49.910;12.530;2023-11-19T12:48:46;12.48;;;11.88;;
1460;SDS011;724;49.910;12.530;2023-11-19T12:51:13;12.70;;;12.00;;
1460;SDS011;724;49.910;12.530;2023-11-19T12:53:47;12.73;;;12.02;;
1460;SDS011;724;49.910;12.530;2023-11-19T12:56:16;13.00;;;12.30;;
1460;SDS011;724;49.910;12.530;2023-11-19T12:58:43;13.10;;;12.40;;
1460;SDS011;724;49.910;12.530;2023-11-19T13:01:10;13.20;;;12.50;;
1460;SDS011;724;49.910;12.530;2023-11-19T13:03:43;13.15;;;12.45;;
1460;SDS011;724;49.910;12.530;2023-11-19T13:06:10;13.30;;;12.60;;
1460;SDS011;724;49.910;12.530;2023-11-19T13:08:39;13.63;;;12.93;;
1460;SDS011;724;49.910;12.530;2023-11-19T13:11:07;13.55;;;12.85;;
1460;SDS011;724;49.910;12.530;2023-11-19T13:16:21;13.80;;;13.10;;
1460;SDS011;724;49.910;12.530;2023-11-19T13:18:47;14.00;;;13.30;;
1460;SDS011;724;49.910;12.530;2023-11-19T13:21:14;13.90;;;13.20;;
1460;SDS011;724;49.910;12.530;2023-11-19T13:23:41;13.90;;;13.20;;
1460;SDS011;724;49.910;12.530;2023-11-19T13:26:08;13.52;;;12.82;;
1460;SDS011;724;49.910;12.530;2023-11-19T13:28:35;13.52;;;12.82;;
1460;SDS011;724;49.910;12.530;2023-11-19T13:31:04;13.40;;;12.70;;
1460;SDS011;724;49.910;12.530;2023-11-19T13:33:31;13.70;;;13.00;;
1460;SDS011;724;49.910;12.530;2023-11-19T13:35:58;13.40;;;12.70;;
1460;SDS011;724;49.910;12.530;2023-11-19T13:38:30;13.40;;;12.70;;
1460;SDS011;724;49.910;12.530;2023-11-19T13:40:57;13.05;;;12.35;;
1460;SDS011;724;49.910;12.530;2023-11-19T13:43:24;13.10;;;12.40;;
1460;SDS011;724;49.910;12.530;2023-11-19T13:45:51;13.20;;;12.50;;
1460;SDS011;724;49.910;12.530;2023-11-19T13:48:19;13.20;;;12.50;;
1460;SDS011;724;49.910;12.530;2023-11-19T13:50:46;13.20;;;12.50;;
1460;SDS011;724;49.910;12.530;2023-11-19T13:53:13;13.40;;;12.70;;
1460;SDS011;724;49.910;12.530;2023-11-19T13:55:39;13.55;;;12.85;;
1460;SDS011;724;49.910;12.530;2023-11-19T13:58:07;13.38;;;12.68;;
1460;SDS011;724;49.910;12.530;2023-11-19T14:00:34;13.80;;;13.10;;
1460;SDS011;724;49.910;12.530;2023-11-19T14:03:01;14.00;;;13.30;;
1460;SDS011;724;49.910;12.530;2023-11-19T14:05:29;14.00;;;13.30;;
1460;SDS011;724;49.910;12.530;2023-11-19T14:07:56;13.80;;;13.10;;
1460;SDS011;724;49.910;12.530;2023-11-19T14:10:23;14.20;;;13.50;;
1460;SDS011;724;49.910;12.530;2023-11-19T14:12:50;14.25;;;13.55;;
1460;SDS011;724;49.910;12.530;2023-11-19T14:15:17;14.10;;;13.40;;
1460;SDS011;724;49.910;12.530;2023-11-19T14:17:44;14.20;;;13.50;;
1460;SDS011;724;49.910;12.530;2023-11-19T14:20:11;14.00;;;13.30;;
1460;SDS011;724;49.910;12.530;2023-11-19T14:22:41;14.40;;;13.70;;
1460;SDS011;724;49.910;12.530;2023-11-19T14:25:09;14.60;;;13.90;;
1460;SDS011;724;49.910;12.530;2023-11-19T14:27:36;14.40;;;13.70;;
1460;SDS011;724;49.910;12.530;2023-11-19T14:30:04;14.60;;;13.90;;
1460;SDS011;724;49.910;12.530;2023-11-19T14:32:35;14.30;;;13.60;;
1460;SDS011;724;49.910;12.530;2023-11-19T14:35:02;14.30;;;13.60;;
1460;SDS011;724;49.910;12.530;2023-11-19T14:37:29;14.20;;;13.50;;
1460;SDS011;724;49.910;12.530;2023-11-19T14:39:58;14.18;;;13.48;;
1460;SDS011;724;49.910;12.530;2023-11-19T14:42:25;14.10;;;13.40;;
1460;SDS011;724;49.910;12.530;2023-11-19T14:44:52;14.40;;;13.70;;
1460;SDS011;724;49.910;12.530;2023-11-19T14:47:21;14.60;;;13.90;;
1460;SDS011;724;49.910;12.530;2023-11-19T14:49:49;14.50;;;13.80;;
1460;SDS011;724;49.910;12.530;2023-11-19T14:52:15;14.57;;;13.88;;
1460;SDS011;724;49.910;12.530;2023-11-19T14:54:42;14.80;;;14.00;;
1460;SDS011;724;49.910;12.530;2023-11-19T14:57:11;14.60;;;13.90;;
1460;SDS011;724;49.910;12.530;2023-11-19T14:59:38;14.35;;;13.65;;
1460;SDS011;724;49.910;12.530;2023-11-19T15:02:05;14.52;;;13.82;;
1460;SDS011;724;49.910;12.530;2023-11-19T15:04:32;14.90;;;14.10;;